Terminal Aerodrome Forecast
Issued by NWS Austin/San Antonio, TX

Home | Current Version | Previous Version | Text Only | Print | Product List | Glossary On
Versions: 1 2 3 4 5 6 7 8 9 10 11 12 13 14 15 16 17 18 19 20 21 22 23 24 25 26 27 28 29 30
000
FTUS44 KEWX 221300 AAA
TAFAUS
TAF AMD
KAUS 221336Z 2214/2318 14012KT P6SM VCTS BKN015CB
      TEMPO 2214/2218 3SM TSRA BR OVC009CB
     FM221800 15013KT P6SM VCTS BKN025CB
      TEMPO 2218/2222 VRB15G25KT 2SM +TSRA BKN012CB
     FM222200 15012KT P6SM VCTS SCT025CB BKN040
      TEMPO 2222/2302 VRB20G30KT 2SM +TSRA BKN008CB
     FM230600 24005KT P6SM FEW040 BKN150=

USA.gov is the U.S. government's official web portal to all federal, state and local government web resources and services.